Portada
METAR-TAF:

METAR-TAF

Aeroports :

Casals, França

latitud: 44-32N, longitud: 001-08W, altitud: 25 m

Observació

L'informe es va fer fa 28 minuts, a les 07:00 UTC
Vent 7 kt del Nord-Est
Temperatura 19°C
Humitat 56%
Pressió 1018 hPa
Visibilitat 10 km o més
sense núvols per sota de 1500 mi sense presència de cumulonimbus.

METAR: LFBC 250700Z AUTO 05007KT CAVOK 19/10 Q1018 NOSIG

Hora: 09:28 (07:28 UTC)

Pronòstic

L'informe es va fer fa 2 hores i 53 minuts, a les 04:35 UTC
Pronòstic vàlid del 25 a les 03 UTC al 26 a les 03 UTC
Vent 8 kt del Nord-Est
Visibilitat 10 km o més
sense núvols per sota de 1500 mi sense presència de cumulonimbus.

TAF: LFBC 250435Z 2503/2603 05008KT CAVOK

Observacions i pronòstics meteorològics de més de 4000 aeroports (METAR i TAF).

Les estacions disponibles són els punts grocs i vermells al mapa.

Posi el ratolí al punt desitjat per veure el nom de l'estació.

Feu clic per veure les observacions i els pronòstics meteorològics.

Per canviar el mapa: feu clic els botons verds amb una creu de color negre per apropar; al botó verd amb un guió per allunyar la imatge; o en les fletxes verdes per a mapes adjacents.


METAR-TAF: